sensor_id;sensor_type;location;lat;lon;timestamp;temperature;humidity
33269;DHT22;19640;50.944;5.260;2024-03-29T00:01:18;9.40;99.90
33269;DHT22;19640;50.944;5.260;2024-03-29T00:03:44;9.40;99.90
33269;DHT22;19640;50.944;5.260;2024-03-29T00:06:10;9.40;99.90
33269;DHT22;19640;50.944;5.260;2024-03-29T00:08:35;9.60;99.90
33269;DHT22;19640;50.944;5.260;2024-03-29T00:11:02;9.80;99.90
33269;DHT22;19640;50.944;5.260;2024-03-29T00:13:28;9.70;99.90
33269;DHT22;19640;50.944;5.260;2024-03-29T00:15:54;9.50;99.90
33269;DHT22;19640;50.944;5.260;2024-03-29T00:18:19;9.50;99.90
33269;DHT22;19640;50.944;5.260;2024-03-29T00:20:45;9.50;99.90
33269;DHT22;19640;50.944;5.260;2024-03-29T00:23:11;9.40;99.90
33269;DHT22;19640;50.944;5.260;2024-03-29T00:25:36;9.30;99.90
33269;DHT22;19640;50.944;5.260;2024-03-29T00:28:02;9.20;99.90
33269;DHT22;19640;50.944;5.260;2024-03-29T00:30:29;9.30;99.90
33269;DHT22;19640;50.944;5.260;2024-03-29T00:32:54;9.30;99.90
33269;DHT22;19640;50.944;5.260;2024-03-29T00:35:20;9.40;99.90
33269;DHT22;19640;50.944;5.260;2024-03-29T00:37:48;9.50;99.90
33269;DHT22;19640;50.944;5.260;2024-03-29T00:40:14;9.60;99.90
33269;DHT22;19640;50.944;5.260;2024-03-29T00:42:39;9.70;99.90
33269;DHT22;19640;50.944;5.260;2024-03-29T00:45:05;9.70;99.90
33269;DHT22;19640;50.944;5.260;2024-03-29T00:47:31;9.70;99.90
33269;DHT22;19640;50.944;5.260;2024-03-29T00:49:58;9.70;99.90
33269;DHT22;19640;50.944;5.260;2024-03-29T00:52:23;9.80;99.90
33269;DHT22;19640;50.944;5.260;2024-03-29T00:54:49;9.80;99.90
33269;DHT22;19640;50.944;5.260;2024-03-29T00:57:15;9.80;99.90
33269;DHT22;19640;50.944;5.260;2024-03-29T00:59:42;9.80;99.90
33269;DHT22;19640;50.944;5.260;2024-03-29T01:02:09;9.80;99.90
33269;DHT22;19640;50.944;5.260;2024-03-29T01:04:35;9.70;99.90
33269;DHT22;19640;50.944;5.260;2024-03-29T01:07:00;9.80;99.90
33269;DHT22;19640;50.944;5.260;2024-03-29T01:09:26;9.70;99.90
33269;DHT22;19640;50.944;5.260;2024-03-29T01:11:52;9.80;99.90
33269;DHT22;19640;50.944;5.260;2024-03-29T01:14:18;10.00;99.90
33269;DHT22;19640;50.944;5.260;2024-03-29T01:16:44;10.00;99.90
33269;DHT22;19640;50.944;5.260;2024-03-29T01:19:09;9.90;99.90
33269;DHT22;19640;50.944;5.260;2024-03-29T01:21:36;9.90;99.90
33269;DHT22;19640;50.944;5.260;2024-03-29T01:24:02;9.90;99.90
33269;DHT22;19640;50.944;5.260;2024-03-29T01:26:28;9.90;99.90
33269;DHT22;19640;50.944;5.260;2024-03-29T01:28:53;10.10;99.90
33269;DHT22;19640;50.944;5.260;2024-03-29T01:31:19;10.10;99.90
33269;DHT22;19640;50.944;5.260;2024-03-29T01:33:45;10.10;99.90
33269;DHT22;19640;50.944;5.260;2024-03-29T01:36:10;10.20;99.90
33269;DHT22;19640;50.944;5.260;2024-03-29T01:38:36;10.20;99.90
33269;DHT22;19640;50.944;5.260;2024-03-29T01:41:02;10.20;99.90
33269;DHT22;19640;50.944;5.260;2024-03-29T01:43:28;10.30;99.90
33269;DHT22;19640;50.944;5.260;2024-03-29T01:45:55;10.30;99.90
33269;DHT22;19640;50.944;5.260;2024-03-29T01:48:22;10.40;99.90
33269;DHT22;19640;50.944;5.260;2024-03-29T01:50:49;10.40;99.90
33269;DHT22;19640;50.944;5.260;2024-03-29T01:53:17;10.30;99.90
33269;DHT22;19640;50.944;5.260;2024-03-29T01:55:43;10.50;99.90
33269;DHT22;19640;50.944;5.260;2024-03-29T01:58:11;10.50;99.90
33269;DHT22;19640;50.944;5.260;2024-03-29T02:00:39;10.40;99.90
33269;DHT22;19640;50.944;5.260;2024-03-29T02:03:07;10.50;99.90
33269;DHT22;19640;50.944;5.260;2024-03-29T02:05:41;10.60;99.90
33269;DHT22;19640;50.944;5.260;2024-03-29T02:08:08;10.60;99.90
33269;DHT22;19640;50.944;5.260;2024-03-29T02:10:34;10.60;99.90
33269;DHT22;19640;50.944;5.260;2024-03-29T02:13:00;10.70;99.90
33269;DHT22;19640;50.944;5.260;2024-03-29T02:15:28;10.70;99.90
33269;DHT22;19640;50.944;5.260;2024-03-29T02:17:54;10.70;99.90
33269;DHT22;19640;50.944;5.260;2024-03-29T02:20:20;10.70;99.90
33269;DHT22;19640;50.944;5.260;2024-03-29T02:22:57;10.70;99.90
33269;DHT22;19640;50.944;5.260;2024-03-29T02:25:25;10.80;99.90
33269;DHT22;19640;50.944;5.260;2024-03-29T02:27:51;10.70;99.90
33269;DHT22;19640;50.944;5.260;2024-03-29T02:30:18;10.50;99.90
33269;DHT22;19640;50.944;5.260;2024-03-29T02:32:44;10.50;99.90
33269;DHT22;19640;50.944;5.260;2024-03-29T02:35:09;10.50;99.90
33269;DHT22;19640;50.944;5.260;2024-03-29T02:37:35;10.40;99.90
33269;DHT22;19640;50.944;5.260;2024-03-29T02:40:02;10.30;99.90
33269;DHT22;19640;50.944;5.260;2024-03-29T02:42:28;10.30;99.90
33269;DHT22;19640;50.944;5.260;2024-03-29T02:44:54;10.30;99.90
33269;DHT22;19640;50.944;5.260;2024-03-29T02:47:21;10.30;99.90
33269;DHT22;19640;50.944;5.260;2024-03-29T02:49:47;10.10;99.90
33269;DHT22;19640;50.944;5.260;2024-03-29T02:52:13;9.90;99.90
33269;DHT22;19640;50.944;5.260;2024-03-29T02:54:41;9.80;99.90
33269;DHT22;19640;50.944;5.260;2024-03-29T02:57:06;9.70;99.90
33269;DHT22;19640;50.944;5.260;2024-03-29T02:59:32;9.60;99.90
33269;DHT22;19640;50.944;5.260;2024-03-29T03:01:58;9.60;99.90
33269;DHT22;19640;50.944;5.260;2024-03-29T03:04:23;9.50;99.90
33269;DHT22;19640;50.944;5.260;2024-03-29T03:06:49;9.40;99.90
33269;DHT22;19640;50.944;5.260;2024-03-29T03:09:15;9.30;99.90
33269;DHT22;19640;50.944;5.260;2024-03-29T03:11:59;9.20;99.90
33269;DHT22;19640;50.944;5.260;2024-03-29T03:14:25;9.10;99.90
33269;DHT22;19640;50.944;5.260;2024-03-29T03:16:50;9.00;99.90
33269;DHT22;19640;50.944;5.260;2024-03-29T03:19:16;9.00;99.90
33269;DHT22;19640;50.944;5.260;2024-03-29T03:21:41;9.00;99.90
33269;DHT22;19640;50.944;5.260;2024-03-29T03:24:07;8.90;99.90
33269;DHT22;19640;50.944;5.260;2024-03-29T03:26:33;8.80;99.90
33269;DHT22;19640;50.944;5.260;2024-03-29T03:28:59;8.80;99.90
33269;DHT22;19640;50.944;5.260;2024-03-29T03:31:24;8.70;99.90
33269;DHT22;19640;50.944;5.260;2024-03-29T03:33:50;8.80;99.90
33269;DHT22;19640;50.944;5.260;2024-03-29T03:36:15;8.90;99.90
33269;DHT22;19640;50.944;5.260;2024-03-29T03:38:41;8.90;99.90
33269;DHT22;19640;50.944;5.260;2024-03-29T03:41:07;8.80;99.90
33269;DHT22;19640;50.944;5.260;2024-03-29T03:43:33;8.80;99.90
33269;DHT22;19640;50.944;5.260;2024-03-29T03:46:02;8.80;99.90
33269;DHT22;19640;50.944;5.260;2024-03-29T03:48:28;8.90;99.90
33269;DHT22;19640;50.944;5.260;2024-03-29T03:50:57;8.90;99.90
33269;DHT22;19640;50.944;5.260;2024-03-29T03:53:22;8.80;99.90
33269;DHT22;19640;50.944;5.260;2024-03-29T03:55:48;8.90;99.90
33269;DHT22;19640;50.944;5.260;2024-03-29T03:58:14;8.80;99.90
33269;DHT22;19640;50.944;5.260;2024-03-29T04:00:40;9.00;99.90
33269;DHT22;19640;50.944;5.260;2024-03-29T04:03:05;9.00;99.90
33269;DHT22;19640;50.944;5.260;2024-03-29T04:05:31;9.00;99.90
33269;DHT22;19640;50.944;5.260;2024-03-29T04:07:57;9.10;99.90
33269;DHT22;19640;50.944;5.260;2024-03-29T04:10:23;9.10;99.90
33269;DHT22;19640;50.944;5.260;2024-03-29T04:12:52;9.10;99.90
33269;DHT22;19640;50.944;5.260;2024-03-29T04:15:18;9.10;99.90
33269;DHT22;19640;50.944;5.260;2024-03-29T04:17:43;9.20;99.90
33269;DHT22;19640;50.944;5.260;2024-03-29T04:20:09;9.20;99.90
33269;DHT22;19640;50.944;5.260;2024-03-29T04:22:35;8.90;99.90
33269;DHT22;19640;50.944;5.260;2024-03-29T04:25:01;8.90;99.90
33269;DHT22;19640;50.944;5.260;2024-03-29T04:27:27;8.70;99.90
33269;DHT22;19640;50.944;5.260;2024-03-29T04:29:54;8.80;99.90
33269;DHT22;19640;50.944;5.260;2024-03-29T04:32:20;8.80;99.90
33269;DHT22;19640;50.944;5.260;2024-03-29T04:34:47;8.40;99.90
33269;DHT22;19640;50.944;5.260;2024-03-29T04:37:13;8.20;99.90
33269;DHT22;19640;50.944;5.260;2024-03-29T04:39:39;8.30;99.90
33269;DHT22;19640;50.944;5.260;2024-03-29T04:42:05;8.40;99.90
33269;DHT22;19640;50.944;5.260;2024-03-29T04:44:30;8.10;99.90
33269;DHT22;19640;50.944;5.260;2024-03-29T04:46:56;7.90;99.90
33269;DHT22;19640;50.944;5.260;2024-03-29T04:49:23;8.10;99.90
33269;DHT22;19640;50.944;5.260;2024-03-29T04:52:15;7.80;99.90
33269;DHT22;19640;50.944;5.260;2024-03-29T04:54:41;7.80;99.90
33269;DHT22;19640;50.944;5.260;2024-03-29T04:57:06;7.80;99.90
33269;DHT22;19640;50.944;5.260;2024-03-29T04:59:35;7.80;99.90
33269;DHT22;19640;50.944;5.260;2024-03-29T05:02:01;8.00;99.90
33269;DHT22;19640;50.944;5.260;2024-03-29T05:04:27;7.70;99.90
33269;DHT22;19640;50.944;5.260;2024-03-29T05:06:54;7.50;99.90
33269;DHT22;19640;50.944;5.260;2024-03-29T05:09:20;7.60;99.90
33269;DHT22;19640;50.944;5.260;2024-03-29T05:11:47;7.60;99.90
33269;DHT22;19640;50.944;5.260;2024-03-29T05:14:17;7.70;99.90
33269;DHT22;19640;50.944;5.260;2024-03-29T05:16:48;7.90;99.90
33269;DHT22;19640;50.944;5.260;2024-03-29T05:19:15;8.00;99.90
33269;DHT22;19640;50.944;5.260;2024-03-29T05:21:42;7.90;99.90
33269;DHT22;19640;50.944;5.260;2024-03-29T05:24:08;7.80;99.90
33269;DHT22;19640;50.944;5.260;2024-03-29T05:26:34;7.50;99.90
33269;DHT22;19640;50.944;5.260;2024-03-29T05:29:00;7.50;99.90
33269;DHT22;19640;50.944;5.260;2024-03-29T05:31:26;7.50;99.90
33269;DHT22;19640;50.944;5.260;2024-03-29T05:33:55;7.50;99.90
33269;DHT22;19640;50.944;5.260;2024-03-29T05:36:20;7.60;99.90
33269;DHT22;19640;50.944;5.260;2024-03-29T05:38:46;7.80;99.90
33269;DHT22;19640;50.944;5.260;2024-03-29T05:41:12;7.70;99.90
33269;DHT22;19640;50.944;5.260;2024-03-29T05:43:40;7.50;99.90
33269;DHT22;19640;50.944;5.260;2024-03-29T05:46:06;7.70;99.90
33269;DHT22;19640;50.944;5.260;2024-03-29T05:48:32;7.90;99.90
33269;DHT22;19640;50.944;5.260;2024-03-29T05:50:57;7.60;99.90
33269;DHT22;19640;50.944;5.260;2024-03-29T05:53:23;7.40;99.90
33269;DHT22;19640;50.944;5.260;2024-03-29T05:55:49;7.50;99.90
33269;DHT22;19640;50.944;5.260;2024-03-29T05:58:15;7.80;99.90
33269;DHT22;19640;50.944;5.260;2024-03-29T06:00:43;7.80;99.90
33269;DHT22;19640;50.944;5.260;2024-03-29T06:03:09;7.90;99.90
33269;DHT22;19640;50.944;5.260;2024-03-29T06:05:35;8.10;99.90
33269;DHT22;19640;50.944;5.260;2024-03-29T06:08:01;7.90;99.90
33269;DHT22;19640;50.944;5.260;2024-03-29T06:10:26;7.90;99.90
33269;DHT22;19640;50.944;5.260;2024-03-29T06:12:52;7.90;99.90
33269;DHT22;19640;50.944;5.260;2024-03-29T06:15:18;7.90;99.90
33269;DHT22;19640;50.944;5.260;2024-03-29T06:18:02;8.20;99.90
33269;DHT22;19640;50.944;5.260;2024-03-29T06:20:28;8.60;99.90
33269;DHT22;19640;50.944;5.260;2024-03-29T06:22:53;8.90;99.90
33269;DHT22;19640;50.944;5.260;2024-03-29T06:25:19;9.00;99.90
33269;DHT22;19640;50.944;5.260;2024-03-29T06:27:45;9.10;99.90
33269;DHT22;19640;50.944;5.260;2024-03-29T06:30:14;8.90;99.90
33269;DHT22;19640;50.944;5.260;2024-03-29T06:32:41;8.50;99.90
33269;DHT22;19640;50.944;5.260;2024-03-29T06:35:07;8.50;99.90
33269;DHT22;19640;50.944;5.260;2024-03-29T06:37:33;8.40;99.90
33269;DHT22;19640;50.944;5.260;2024-03-29T06:39:58;8.40;99.90
33269;DHT22;19640;50.944;5.260;2024-03-29T06:42:24;8.40;99.90
33269;DHT22;19640;50.944;5.260;2024-03-29T06:44:50;8.60;99.90
33269;DHT22;19640;50.944;5.260;2024-03-29T06:47:17;8.90;99.90
33269;DHT22;19640;50.944;5.260;2024-03-29T06:49:43;9.10;99.90
33269;DHT22;19640;50.944;5.260;2024-03-29T06:52:08;9.10;99.90
33269;DHT22;19640;50.944;5.260;2024-03-29T06:54:34;8.70;99.90
33269;DHT22;19640;50.944;5.260;2024-03-29T06:57:00;8.50;99.90
33269;DHT22;19640;50.944;5.260;2024-03-29T06:59:26;8.60;99.90
33269;DHT22;19640;50.944;5.260;2024-03-29T07:01:53;8.60;99.90
33269;DHT22;19640;50.944;5.260;2024-03-29T07:04:23;8.50;99.90
33269;DHT22;19640;50.944;5.260;2024-03-29T07:06:50;8.40;99.90
33269;DHT22;19640;50.944;5.260;2024-03-29T07:09:19;8.40;99.90
33269;DHT22;19640;50.944;5.260;2024-03-29T07:11:49;8.50;99.90
33269;DHT22;19640;50.944;5.260;2024-03-29T07:14:16;8.40;99.90
33269;DHT22;19640;50.944;5.260;2024-03-29T07:16:42;8.40;99.90
33269;DHT22;19640;50.944;5.260;2024-03-29T07:19:08;8.60;99.90
33269;DHT22;19640;50.944;5.260;2024-03-29T07:21:34;8.60;99.90
33269;DHT22;19640;50.944;5.260;2024-03-29T07:24:00;8.70;99.90
33269;DHT22;19640;50.944;5.260;2024-03-29T07:26:25;8.90;99.90
33269;DHT22;19640;50.944;5.260;2024-03-29T07:28:51;8.90;99.90
33269;DHT22;19640;50.944;5.260;2024-03-29T07:31:17;8.90;99.90
33269;DHT22;19640;50.944;5.260;2024-03-29T07:33:43;8.90;99.90
33269;DHT22;19640;50.944;5.260;2024-03-29T07:36:08;8.90;99.90
33269;DHT22;19640;50.944;5.260;2024-03-29T07:38:37;8.90;99.90
33269;DHT22;19640;50.944;5.260;2024-03-29T07:41:03;8.80;99.90
33269;DHT22;19640;50.944;5.260;2024-03-29T07:43:41;8.90;99.90
33269;DHT22;19640;50.944;5.260;2024-03-29T07:46:16;9.00;99.90
33269;DHT22;19640;50.944;5.260;2024-03-29T07:48:41;9.10;99.90
33269;DHT22;19640;50.944;5.260;2024-03-29T07:51:07;9.20;99.90
33269;DHT22;19640;50.944;5.260;2024-03-29T07:53:33;9.40;99.90
33269;DHT22;19640;50.944;5.260;2024-03-29T07:55:58;9.80;99.90
33269;DHT22;19640;50.944;5.260;2024-03-29T07:58:25;9.80;99.90
33269;DHT22;19640;50.944;5.260;2024-03-29T08:00:52;9.90;99.90
33269;DHT22;19640;50.944;5.260;2024-03-29T08:03:17;9.80;99.90
33269;DHT22;19640;50.944;5.260;2024-03-29T08:05:57;9.80;99.90
33269;DHT22;19640;50.944;5.260;2024-03-29T08:08:22;10.00;99.90
33269;DHT22;19640;50.944;5.260;2024-03-29T08:10:50;10.30;99.90
33269;DHT22;19640;50.944;5.260;2024-03-29T08:13:16;10.20;99.90
33269;DHT22;19640;50.944;5.260;2024-03-29T08:15:46;10.30;99.90
33269;DHT22;19640;50.944;5.260;2024-03-29T08:18:11;10.30;99.90
33269;DHT22;19640;50.944;5.260;2024-03-29T08:20:37;10.50;99.90
33269;DHT22;19640;50.944;5.260;2024-03-29T08:23:03;10.90;99.90
33269;DHT22;19640;50.944;5.260;2024-03-29T08:25:29;11.20;99.90
33269;DHT22;19640;50.944;5.260;2024-03-29T08:27:55;11.40;99.90
33269;DHT22;19640;50.944;5.260;2024-03-29T08:30:27;11.70;99.90
33269;DHT22;19640;50.944;5.260;2024-03-29T08:33:00;11.70;99.90
33269;DHT22;19640;50.944;5.260;2024-03-29T08:35:28;11.80;99.90
33269;DHT22;19640;50.944;5.260;2024-03-29T08:37:54;11.90;99.90
33269;DHT22;19640;50.944;5.260;2024-03-29T08:40:19;12.00;99.90
33269;DHT22;19640;50.944;5.260;2024-03-29T08:42:45;12.10;99.90
33269;DHT22;19640;50.944;5.260;2024-03-29T08:45:11;12.20;99.90
33269;DHT22;19640;50.944;5.260;2024-03-29T08:47:38;12.40;99.90
33269;DHT22;19640;50.944;5.260;2024-03-29T08:50:04;12.30;99.90
33269;DHT22;19640;50.944;5.260;2024-03-29T08:52:30;12.40;99.90
33269;DHT22;19640;50.944;5.260;2024-03-29T08:54:56;12.40;99.90
33269;DHT22;19640;50.944;5.260;2024-03-29T08:57:22;12.40;99.90
33269;DHT22;19640;50.944;5.260;2024-03-29T08:59:48;12.50;99.90
33269;DHT22;19640;50.944;5.260;2024-03-29T09:02:13;12.30;99.90
33269;DHT22;19640;50.944;5.260;2024-03-29T09:04:39;12.30;99.90
33269;DHT22;19640;50.944;5.260;2024-03-29T09:07:05;12.30;99.90
33269;DHT22;19640;50.944;5.260;2024-03-29T09:09:32;12.10;99.90
33269;DHT22;19640;50.944;5.260;2024-03-29T09:11:58;12.00;99.90
33269;DHT22;19640;50.944;5.260;2024-03-29T09:14:24;12.00;99.90
33269;DHT22;19640;50.944;5.260;2024-03-29T09:16:50;12.00;99.90
33269;DHT22;19640;50.944;5.260;2024-03-29T09:19:16;12.20;99.90
33269;DHT22;19640;50.944;5.260;2024-03-29T09:21:42;12.20;99.90
33269;DHT22;19640;50.944;5.260;2024-03-29T09:24:08;12.40;99.90
33269;DHT22;19640;50.944;5.260;2024-03-29T09:26:33;12.50;99.90
33269;DHT22;19640;50.944;5.260;2024-03-29T09:28:59;12.50;99.90
33269;DHT22;19640;50.944;5.260;2024-03-29T09:31:25;12.60;99.90
33269;DHT22;19640;50.944;5.260;2024-03-29T09:33:51;12.40;99.90
33269;DHT22;19640;50.944;5.260;2024-03-29T09:36:23;12.30;99.90
33269;DHT22;19640;50.944;5.260;2024-03-29T09:38:49;12.10;99.90
33269;DHT22;19640;50.944;5.260;2024-03-29T09:41:17;12.20;99.90
33269;DHT22;19640;50.944;5.260;2024-03-29T09:43:45;12.30;99.90
33269;DHT22;19640;50.944;5.260;2024-03-29T09:46:15;12.40;99.90
33269;DHT22;19640;50.944;5.260;2024-03-29T09:48:42;12.60;99.90
33269;DHT22;19640;50.944;5.260;2024-03-29T09:51:11;12.70;99.90
33269;DHT22;19640;50.944;5.260;2024-03-29T09:53:41;12.80;99.90
33269;DHT22;19640;50.944;5.260;2024-03-29T09:56:07;12.90;99.90
33269;DHT22;19640;50.944;5.260;2024-03-29T09:58:35;13.00;99.90
33269;DHT22;19640;50.944;5.260;2024-03-29T10:01:05;13.00;99.90
33269;DHT22;19640;50.944;5.260;2024-03-29T10:03:35;13.30;99.90
33269;DHT22;19640;50.944;5.260;2024-03-29T10:06:02;13.30;99.90
33269;DHT22;19640;50.944;5.260;2024-03-29T10:08:29;13.40;99.90
33269;DHT22;19640;50.944;5.260;2024-03-29T10:10:59;13.40;99.90
33269;DHT22;19640;50.944;5.260;2024-03-29T10:13:25;13.50;99.90
33269;DHT22;19640;50.944;5.260;2024-03-29T10:15:55;13.40;99.90
33269;DHT22;19640;50.944;5.260;2024-03-29T10:18:30;13.60;99.90
33269;DHT22;19640;50.944;5.260;2024-03-29T10:21:03;13.70;99.90
33269;DHT22;19640;50.944;5.260;2024-03-29T10:23:31;13.90;99.90
33269;DHT22;19640;50.944;5.260;2024-03-29T10:25:57;13.80;99.90
33269;DHT22;19640;50.944;5.260;2024-03-29T10:28:30;13.90;99.90
33269;DHT22;19640;50.944;5.260;2024-03-29T10:30:57;14.00;99.90
33269;DHT22;19640;50.944;5.260;2024-03-29T10:33:23;14.00;99.90
33269;DHT22;19640;50.944;5.260;2024-03-29T10:35:52;14.10;99.90
33269;DHT22;19640;50.944;5.260;2024-03-29T10:38:21;13.90;99.90
33269;DHT22;19640;50.944;5.260;2024-03-29T10:40:47;14.20;99.90
33269;DHT22;19640;50.944;5.260;2024-03-29T10:43:14;14.10;99.90
33269;DHT22;19640;50.944;5.260;2024-03-29T10:45:42;14.00;99.90
33269;DHT22;19640;50.944;5.260;2024-03-29T10:48:09;14.10;99.90
33269;DHT22;19640;50.944;5.260;2024-03-29T10:50:36;14.40;99.90
33269;DHT22;19640;50.944;5.260;2024-03-29T10:53:02;14.80;99.90
33269;DHT22;19640;50.944;5.260;2024-03-29T10:55:37;15.00;99.90
33269;DHT22;19640;50.944;5.260;2024-03-29T10:58:04;15.00;99.90
33269;DHT22;19640;50.944;5.260;2024-03-29T11:00:46;14.90;99.90
33269;DHT22;19640;50.944;5.260;2024-03-29T11:03:19;14.70;99.90
33269;DHT22;19640;50.944;5.260;2024-03-29T11:05:49;14.50;99.90
33269;DHT22;19640;50.944;5.260;2024-03-29T11:08:26;14.30;99.90
33269;DHT22;19640;50.944;5.260;2024-03-29T11:10:58;14.20;99.90
33269;DHT22;19640;50.944;5.260;2024-03-29T11:13:53;14.10;99.90
33269;DHT22;19640;50.944;5.260;2024-03-29T11:16:19;14.00;99.90
33269;DHT22;19640;50.944;5.260;2024-03-29T11:18:46;14.10;99.90
33269;DHT22;19640;50.944;5.260;2024-03-29T11:21:15;14.00;99.90
33269;DHT22;19640;50.944;5.260;2024-03-29T11:23:49;13.90;99.90
33269;DHT22;19640;50.944;5.260;2024-03-29T11:26:16;13.80;99.90
33269;DHT22;19640;50.944;5.260;2024-03-29T11:28:52;13.80;99.90
33269;DHT22;19640;50.944;5.260;2024-03-29T11:31:17;13.70;99.90
33269;DHT22;19640;50.944;5.260;2024-03-29T11:33:48;13.70;99.90
33269;DHT22;19640;50.944;5.260;2024-03-29T11:36:21;13.90;99.90
33269;DHT22;19640;50.944;5.260;2024-03-29T11:38:52;13.90;99.90
33269;DHT22;19640;50.944;5.260;2024-03-29T11:41:20;13.80;99.90
33269;DHT22;19640;50.944;5.260;2024-03-29T11:43:49;13.70;99.90
33269;DHT22;19640;50.944;5.260;2024-03-29T11:46:15;13.80;99.90
33269;DHT22;19640;50.944;5.260;2024-03-29T11:48:41;14.10;99.90
33269;DHT22;19640;50.944;5.260;2024-03-29T11:51:08;14.30;99.90
33269;DHT22;19640;50.944;5.260;2024-03-29T11:53:35;14.30;99.90
33269;DHT22;19640;50.944;5.260;2024-03-29T11:56:02;14.30;99.90
33269;DHT22;19640;50.944;5.260;2024-03-29T11:58:29;14.40;99.90
33269;DHT22;19640;50.944;5.260;2024-03-29T12:00:56;14.70;99.90
33269;DHT22;19640;50.944;5.260;2024-03-29T12:03:27;14.80;99.90
33269;DHT22;19640;50.944;5.260;2024-03-29T12:05:56;14.80;99.90
33269;DHT22;19640;50.944;5.260;2024-03-29T12:08:25;14.90;99.90
33269;DHT22;19640;50.944;5.260;2024-03-29T12:10:52;15.00;99.90
33269;DHT22;19640;50.944;5.260;2024-03-29T12:13:18;15.00;99.90
33269;DHT22;19640;50.944;5.260;2024-03-29T12:15:43;15.00;99.90
33269;DHT22;19640;50.944;5.260;2024-03-29T12:18:10;15.10;99.90
33269;DHT22;19640;50.944;5.260;2024-03-29T12:20:38;15.10;99.90
33269;DHT22;19640;50.944;5.260;2024-03-29T12:23:06;14.90;99.90
33269;DHT22;19640;50.944;5.260;2024-03-29T12:25:39;14.90;99.90
33269;DHT22;19640;50.944;5.260;2024-03-29T12:28:05;14.90;99.90
33269;DHT22;19640;50.944;5.260;2024-03-29T12:30:33;15.00;99.90
33269;DHT22;19640;50.944;5.260;2024-03-29T12:33:04;15.10;99.90
33269;DHT22;19640;50.944;5.260;2024-03-29T12:35:32;15.00;99.90
33269;DHT22;19640;50.944;5.260;2024-03-29T12:38:00;14.90;99.90
33269;DHT22;19640;50.944;5.260;2024-03-29T12:40:31;15.00;99.90
33269;DHT22;19640;50.944;5.260;2024-03-29T12:43:08;14.90;99.90
33269;DHT22;19640;50.944;5.260;2024-03-29T12:45:35;15.00;99.90
33269;DHT22;19640;50.944;5.260;2024-03-29T12:48:02;15.00;99.90
33269;DHT22;19640;50.944;5.260;2024-03-29T12:50:32;15.20;99.90
33269;DHT22;19640;50.944;5.260;2024-03-29T12:53:00;15.20;99.90
33269;DHT22;19640;50.944;5.260;2024-03-29T12:55:27;15.10;99.90
33269;DHT22;19640;50.944;5.260;2024-03-29T12:57:57;15.10;99.90
33269;DHT22;19640;50.944;5.260;2024-03-29T13:00:26;14.90;99.90
33269;DHT22;19640;50.944;5.260;2024-03-29T13:02:53;15.30;99.90
33269;DHT22;19640;50.944;5.260;2024-03-29T13:05:19;15.50;99.90
33269;DHT22;19640;50.944;5.260;2024-03-29T13:07:45;15.70;99.90
33269;DHT22;19640;50.944;5.260;2024-03-29T13:10:11;15.90;99.90
33269;DHT22;19640;50.944;5.260;2024-03-29T13:12:45;15.80;99.90
33269;DHT22;19640;50.944;5.260;2024-03-29T13:15:26;15.90;99.90
33269;DHT22;19640;50.944;5.260;2024-03-29T13:17:53;15.80;99.90
33269;DHT22;19640;50.944;5.260;2024-03-29T13:20:20;16.00;99.90
33269;DHT22;19640;50.944;5.260;2024-03-29T13:22:46;16.20;99.90
33269;DHT22;19640;50.944;5.260;2024-03-29T13:25:17;16.20;99.90
33269;DHT22;19640;50.944;5.260;2024-03-29T13:27:45;16.00;99.90
33269;DHT22;19640;50.944;5.260;2024-03-29T13:30:12;15.80;99.90
33269;DHT22;19640;50.944;5.260;2024-03-29T13:32:39;15.50;99.90
33269;DHT22;19640;50.944;5.260;2024-03-29T13:35:06;15.40;99.90
33269;DHT22;19640;50.944;5.260;2024-03-29T13:37:38;15.40;99.90
33269;DHT22;19640;50.944;5.260;2024-03-29T13:40:06;15.80;99.90
33269;DHT22;19640;50.944;5.260;2024-03-29T13:42:32;16.00;99.90
33269;DHT22;19640;50.944;5.260;2024-03-29T13:44:58;16.20;99.90
33269;DHT22;19640;50.944;5.260;2024-03-29T13:47:24;16.30;99.90
33269;DHT22;19640;50.944;5.260;2024-03-29T13:49:50;16.40;99.90
33269;DHT22;19640;50.944;5.260;2024-03-29T13:52:20;16.50;99.90
33269;DHT22;19640;50.944;5.260;2024-03-29T13:54:46;16.40;99.90
33269;DHT22;19640;50.944;5.260;2024-03-29T13:57:13;16.10;99.90
33269;DHT22;19640;50.944;5.260;2024-03-29T13:59:39;16.00;99.90
33269;DHT22;19640;50.944;5.260;2024-03-29T14:02:05;16.10;99.90
33269;DHT22;19640;50.944;5.260;2024-03-29T14:04:30;16.20;99.90
33269;DHT22;19640;50.944;5.260;2024-03-29T14:06:56;16.20;99.90
33269;DHT22;19640;50.944;5.260;2024-03-29T14:09:22;16.20;99.90
33269;DHT22;19640;50.944;5.260;2024-03-29T14:11:48;16.10;99.90
33269;DHT22;19640;50.944;5.260;2024-03-29T14:14:13;16.20;99.90
33269;DHT22;19640;50.944;5.260;2024-03-29T14:16:39;16.10;99.90
33269;DHT22;19640;50.944;5.260;2024-03-29T14:19:05;16.30;99.90
33269;DHT22;19640;50.944;5.260;2024-03-29T14:21:30;16.30;99.90
33269;DHT22;19640;50.944;5.260;2024-03-29T14:23:57;16.20;99.90
33269;DHT22;19640;50.944;5.260;2024-03-29T14:26:23;16.20;99.90
33269;DHT22;19640;50.944;5.260;2024-03-29T14:28:50;16.20;99.90
33269;DHT22;19640;50.944;5.260;2024-03-29T14:31:15;16.20;99.90
33269;DHT22;19640;50.944;5.260;2024-03-29T14:33:41;16.40;99.90
33269;DHT22;19640;50.944;5.260;2024-03-29T14:36:07;16.20;99.90
33269;DHT22;19640;50.944;5.260;2024-03-29T14:38:33;16.20;99.90
33269;DHT22;19640;50.944;5.260;2024-03-29T14:40:58;16.20;99.90
33269;DHT22;19640;50.944;5.260;2024-03-29T14:43:24;16.30;99.90
33269;DHT22;19640;50.944;5.260;2024-03-29T14:45:50;16.20;99.90
33269;DHT22;19640;50.944;5.260;2024-03-29T14:48:16;16.10;99.90
33269;DHT22;19640;50.944;5.260;2024-03-29T14:50:43;16.10;99.90
33269;DHT22;19640;50.944;5.260;2024-03-29T14:53:09;16.00;99.90
33269;DHT22;19640;50.944;5.260;2024-03-29T14:55:35;16.10;99.90
33269;DHT22;19640;50.944;5.260;2024-03-29T14:58:05;15.80;99.90
33269;DHT22;19640;50.944;5.260;2024-03-29T15:00:31;15.80;99.90
33269;DHT22;19640;50.944;5.260;2024-03-29T15:02:57;15.90;99.90
33269;DHT22;19640;50.944;5.260;2024-03-29T15:05:23;16.10;99.90
33269;DHT22;19640;50.944;5.260;2024-03-29T15:07:51;15.80;99.90
33269;DHT22;19640;50.944;5.260;2024-03-29T15:10:17;15.90;99.90
33269;DHT22;19640;50.944;5.260;2024-03-29T15:12:45;16.00;99.90
33269;DHT22;19640;50.944;5.260;2024-03-29T15:15:14;16.20;99.90
33269;DHT22;19640;50.944;5.260;2024-03-29T15:17:39;16.30;99.90
33269;DHT22;19640;50.944;5.260;2024-03-29T15:20:05;16.10;99.90
33269;DHT22;19640;50.944;5.260;2024-03-29T15:22:37;16.30;99.90
33269;DHT22;19640;50.944;5.260;2024-03-29T15:25:04;16.10;99.90
33269;DHT22;19640;50.944;5.260;2024-03-29T15:27:30;16.10;99.90
33269;DHT22;19640;50.944;5.260;2024-03-29T15:30:14;16.20;99.90
33269;DHT22;19640;50.944;5.260;2024-03-29T15:32:40;16.20;99.90
33269;DHT22;19640;50.944;5.260;2024-03-29T15:35:07;16.40;99.90
33269;DHT22;19640;50.944;5.260;2024-03-29T15:37:34;16.50;99.90